createdAt,value
2023-04-17T00:02:25.707Z,13.50
2023-04-17T00:07:28.682Z,13.00
2023-04-17T00:12:31.206Z,15.30
2023-04-17T00:17:33.836Z,14.80
2023-04-17T00:22:37.385Z,19.50
2023-04-17T00:27:40.734Z,13.60
2023-04-17T00:32:43.486Z,12.80
2023-04-17T00:37:47.393Z,14.40
2023-04-17T00:42:53.054Z,16.30
2023-04-17T00:47:58.673Z,15.00
2023-04-17T00:53:01.619Z,14.00
2023-04-17T00:58:04.563Z,13.30
2023-04-17T01:03:08.475Z,15.50
2023-04-17T01:08:11.260Z,12.50
2023-04-17T01:13:13.837Z,16.50
2023-04-17T01:18:16.592Z,14.70
2023-04-17T01:23:19.106Z,15.30
2023-04-17T01:28:21.618Z,15.50
2023-04-17T01:33:24.115Z,16.70
2023-04-17T01:38:26.619Z,13.80
2023-04-17T01:43:29.163Z,17.90
2023-04-17T01:48:32.144Z,18.60
2023-04-17T01:53:35.485Z,15.10
2023-04-17T01:58:37.998Z,15.40
2023-04-17T02:03:40.629Z,14.60
2023-04-17T02:08:43.329Z,15.90
2023-04-17T02:13:45.855Z,15.80
2023-04-17T02:18:49.599Z,14.50
2023-04-17T02:23:52.204Z,14.20
2023-04-17T02:28:54.784Z,15.10
2023-04-17T02:33:57.392Z,12.10
2023-04-17T02:38:59.898Z,15.40
2023-04-17T02:44:02.578Z,16.40
2023-04-17T02:49:05.109Z,14.80
2023-04-17T02:54:07.652Z,19.20
2023-04-17T02:59:10.517Z,15.30
2023-04-17T03:04:13.363Z,12.50
2023-04-17T03:09:16.442Z,15.30
2023-04-17T03:14:18.933Z,16.60
2023-04-17T03:19:21.477Z,11.70
2023-04-17T03:24:24.065Z,14.60
2023-04-17T03:29:26.837Z,15.80
2023-04-17T03:34:31.624Z,19.70
2023-04-17T03:39:34.144Z,15.80
2023-04-17T03:44:36.709Z,14.80
2023-04-17T03:49:39.196Z,12.30
2023-04-17T03:54:42.499Z,18.20
2023-04-17T03:59:45.013Z,14.60
2023-04-17T04:04:48.281Z,15.30
2023-04-17T04:09:51.036Z,12.40
2023-04-17T04:14:53.581Z,14.30
2023-04-17T04:19:56.126Z,11.80
2023-04-17T04:24:59.304Z,14.40
2023-04-17T04:30:03.521Z,11.10
2023-04-17T04:35:06.633Z,14.00
2023-04-17T04:40:10.957Z,11.40
2023-04-17T04:45:13.556Z,12.00
2023-04-17T04:50:16.489Z,12.20
2023-04-17T04:55:19.697Z,12.10
2023-04-17T05:00:23.757Z,12.30
2023-04-17T05:05:26.402Z,11.20
2023-04-17T05:10:28.909Z,7.90
2023-04-17T05:15:31.492Z,11.70
2023-04-17T05:20:34.045Z,9.60
2023-04-17T05:25:36.669Z,9.10
2023-04-17T05:30:39.334Z,7.30
2023-04-17T05:35:41.897Z,10.90
2023-04-17T05:40:44.631Z,9.10
2023-04-17T05:45:51.954Z,7.50
2023-04-17T05:50:56.435Z,8.40
2023-04-17T05:55:59.057Z,8.90
2023-04-17T06:01:02.465Z,9.30
2023-04-17T06:06:05.413Z,5.80
2023-04-17T06:11:08.040Z,7.60
2023-04-17T06:16:10.580Z,5.90
2023-04-17T06:21:13.346Z,5.10
2023-04-17T06:26:16.123Z,3.70
2023-04-17T06:31:18.671Z,8.90
2023-04-17T06:36:21.288Z,6.20
2023-04-17T06:41:23.879Z,3.90
2023-04-17T06:46:26.498Z,4.50
2023-04-17T06:51:29.254Z,6.70
2023-04-17T06:56:31.844Z,5.40
2023-04-17T07:01:35.061Z,5.40
2023-04-17T07:06:39.417Z,6.70
2023-04-17T07:11:42.108Z,6.50
2023-04-17T07:16:44.656Z,5.30
2023-04-17T07:21:47.230Z,3.60
2023-04-17T07:26:49.859Z,5.50
2023-04-17T07:31:52.496Z,4.80
2023-04-17T07:36:55.226Z,7.00
2023-04-17T07:41:57.777Z,5.60
2023-04-17T07:47:00.916Z,3.50
2023-04-17T07:52:03.524Z,4.30
2023-04-17T07:57:06.056Z,4.10
2023-04-17T08:02:08.716Z,5.00
2023-04-17T08:07:12.606Z,4.50
2023-04-17T08:12:15.410Z,4.80
2023-04-17T08:17:22.742Z,6.30
2023-04-17T08:22:25.978Z,4.30
2023-04-17T08:27:28.627Z,4.40
2023-04-17T08:32:38.039Z,5.10
2023-04-17T08:37:42.307Z,6.90
2023-04-17T08:42:47.728Z,4.50
2023-04-17T08:52:53.924Z,6.60
2023-04-17T08:58:02.184Z,5.80
2023-04-17T09:03:08.015Z,5.10
2023-04-17T09:08:20.986Z,8.80
2023-04-17T09:13:26.070Z,7.10
2023-04-17T09:18:33.625Z,5.60
2023-04-17T09:23:48.911Z,5.80
2023-04-17T09:29:04.222Z,10.20
2023-04-17T09:34:11.014Z,5.60
2023-04-17T09:39:23.897Z,6.50
2023-04-17T09:44:29.921Z,6.40
2023-04-17T09:49:38.272Z,7.80
2023-04-17T09:54:42.739Z,6.10
2023-04-17T09:59:49.431Z,4.00
2023-04-17T10:04:52.504Z,5.60
2023-04-17T10:09:55.605Z,4.60
2023-04-17T10:14:58.241Z,5.90
2023-04-17T10:20:20.036Z,4.80
2023-04-17T10:25:25.210Z,5.30
2023-04-17T10:30:54.820Z,7.40
2023-04-17T10:35:58.085Z,5.90
2023-04-17T10:41:08.430Z,5.80
2023-04-17T10:46:13.146Z,8.70
2023-04-17T10:51:21.676Z,5.90
2023-04-17T10:56:30.771Z,4.90
2023-04-17T11:01:48.875Z,5.50
2023-04-17T11:06:55.542Z,7.50
2023-04-17T11:12:01.819Z,6.40
2023-04-17T11:17:04.968Z,8.60
2023-04-17T11:22:10.125Z,9.90
2023-04-17T11:27:12.819Z,5.80
2023-04-17T11:32:15.520Z,8.30
2023-04-17T11:37:18.086Z,8.60
2023-04-17T11:42:29.659Z,7.70
2023-04-17T11:47:32.361Z,8.20
2023-04-17T11:52:34.855Z,9.10
2023-04-17T11:57:43.532Z,7.00
2023-04-17T12:02:46.273Z,11.00
2023-04-17T12:08:00.148Z,10.60
2023-04-17T12:13:02.747Z,9.50
2023-04-17T12:18:06.242Z,10.00
2023-04-17T12:23:08.902Z,8.00
2023-04-17T12:28:11.427Z,10.10
2023-04-17T12:33:14.161Z,11.70
2023-04-17T12:38:17.117Z,6.70
2023-04-17T12:43:21.212Z,5.40
2023-04-17T12:48:23.884Z,4.90
2023-04-17T12:53:26.392Z,5.90
2023-04-17T12:58:29.034Z,5.30
2023-04-17T13:03:31.644Z,8.60
2023-04-17T13:08:34.287Z,5.20
2023-04-17T13:13:36.796Z,8.10
2023-04-17T13:18:39.301Z,6.20
2023-04-17T13:23:41.842Z,7.00
2023-04-17T13:28:44.412Z,6.10
2023-04-17T13:33:46.972Z,10.50
2023-04-17T13:38:49.538Z,9.20
2023-04-17T13:43:52.145Z,11.30
2023-04-17T13:48:55.302Z,7.30
2023-04-17T13:54:00.894Z,7.20
2023-04-17T14:04:08.038Z,11.00
2023-04-17T14:09:11.576Z,8.90
2023-04-17T14:14:15.330Z,11.70
2023-04-17T14:19:18.184Z,9.00
2023-04-17T14:24:20.921Z,12.40
2023-04-17T14:29:23.485Z,10.00
2023-04-17T14:34:26.081Z,10.00
2023-04-17T14:39:30.869Z,9.70
2023-04-17T14:44:34.063Z,10.60
2023-04-17T14:49:36.688Z,9.10
2023-04-17T14:54:39.220Z,8.50
2023-04-17T14:59:44.289Z,8.70
2023-04-17T15:04:48.832Z,6.00
2023-04-17T15:09:51.379Z,7.00
2023-04-17T15:14:54.086Z,7.70
2023-04-17T15:20:00.773Z,4.90
2023-04-17T15:25:03.632Z,7.40
2023-04-17T15:30:08.887Z,7.20
2023-04-17T15:35:11.502Z,7.70
2023-04-17T15:40:14.184Z,6.80
2023-04-17T15:45:16.829Z,5.70
2023-04-17T15:50:21.181Z,8.30
2023-04-17T15:55:24.602Z,7.80
2023-04-17T16:00:27.466Z,7.70
2023-04-17T16:05:30.575Z,6.60
2023-04-17T16:10:34.800Z,6.30
2023-04-17T16:15:37.369Z,7.40
2023-04-17T16:20:40.154Z,5.20
2023-04-17T16:25:42.785Z,5.40
2023-04-17T16:30:45.406Z,3.70
2023-04-17T16:35:47.987Z,5.30
2023-04-17T16:40:53.410Z,5.90
2023-04-17T16:45:56.357Z,6.40
2023-04-17T16:51:05.669Z,6.30
2023-04-17T16:56:08.654Z,4.30
2023-04-17T17:01:12.172Z,5.50
2023-04-17T17:06:17.449Z,4.90
2023-04-17T17:11:20.173Z,6.30
2023-04-17T17:16:23.013Z,4.50
2023-04-17T17:21:26.401Z,5.70
2023-04-17T17:26:29.050Z,5.00
2023-04-17T17:31:33.053Z,7.40
2023-04-17T17:36:35.999Z,5.70
2023-04-17T17:41:38.801Z,6.40
2023-04-17T17:46:41.687Z,6.40
2023-04-17T17:51:44.386Z,8.50
2023-04-17T17:56:47.005Z,7.10
2023-04-17T18:01:49.793Z,9.10
2023-04-17T18:06:52.749Z,10.70
2023-04-17T18:11:55.825Z,9.70
2023-04-17T18:16:58.369Z,10.10
2023-04-17T18:22:01.025Z,11.80
2023-04-17T18:27:04.090Z,12.20
2023-04-17T18:32:06.615Z,15.80
2023-04-17T18:37:09.211Z,16.10
2023-04-17T18:42:11.977Z,13.20
2023-04-17T18:47:14.626Z,13.20
2023-04-17T18:52:17.320Z,14.10
2023-04-17T18:57:20.020Z,10.80
2023-04-17T19:02:23.209Z,14.60
2023-04-17T19:07:28.771Z,13.30
2023-04-17T19:12:31.539Z,17.30
2023-04-17T19:17:35.181Z,15.10
2023-04-17T19:22:38.699Z,16.20
2023-04-17T19:27:41.567Z,15.10
2023-04-17T19:32:44.677Z,17.30
2023-04-17T19:37:47.884Z,13.80
2023-04-17T19:42:51.061Z,13.70
2023-04-17T19:47:57.279Z,13.60
2023-04-17T19:53:00.776Z,12.80
2023-04-17T19:58:03.704Z,11.10
2023-04-17T20:03:06.487Z,16.90
2023-04-17T20:08:09.709Z,15.50
2023-04-17T20:13:14.519Z,19.40
2023-04-17T20:18:17.664Z,19.00
2023-04-17T20:23:20.404Z,15.00
2023-04-17T20:28:23.067Z,16.60
2023-04-17T20:33:25.765Z,15.40
2023-04-17T20:38:32.211Z,16.20
2023-04-17T20:43:34.843Z,16.10
2023-04-17T20:48:41.812Z,15.60
2023-04-17T20:53:44.872Z,13.80
2023-04-17T20:58:49.816Z,14.60
2023-04-17T21:03:52.777Z,16.80
2023-04-17T21:08:55.411Z,21.00
2023-04-17T21:14:00.337Z,20.40
2023-04-17T21:19:02.934Z,16.50
2023-04-17T21:24:06.141Z,16.70
2023-04-17T21:29:10.007Z,16.20
2023-04-17T21:34:12.782Z,15.90
2023-04-17T21:39:16.804Z,14.40
2023-04-17T21:44:19.326Z,19.50
2023-04-17T21:49:22.713Z,19.00
2023-04-17T21:54:27.976Z,21.20
2023-04-17T21:59:30.784Z,18.80
2023-04-17T22:04:33.361Z,25.40
2023-04-17T22:09:36.087Z,19.20
2023-04-17T22:14:40.551Z,21.30
2023-04-17T22:19:43.123Z,24.40
2023-04-17T22:24:45.969Z,20.30
2023-04-17T22:29:48.501Z,21.30
2023-04-17T22:34:51.036Z,20.40
2023-04-17T22:39:53.558Z,21.30
2023-04-17T22:44:56.321Z,20.00
2023-04-17T22:55:37.346Z,17.50
2023-04-17T23:00:40.073Z,18.90
2023-04-17T23:05:42.560Z,17.60
2023-04-17T23:10:45.220Z,20.20
2023-04-17T23:15:47.764Z,23.20
2023-04-17T23:20:50.400Z,23.30
2023-04-17T23:25:52.994Z,22.80
2023-04-17T23:30:56.275Z,18.30
2023-04-17T23:35:59.602Z,18.30
2023-04-17T23:41:02.162Z,20.30
2023-04-17T23:46:04.722Z,19.90
2023-04-17T23:51:07.327Z,22.80
2023-04-17T23:56:09.915Z,21.60
